Kezdőlap
METAR-TAF:

METAR-TAF

Repülőterek :

Pekingi nemzetközi repülőtér

Peking, Kína

földrajzi szélesség: 39-56N, földrajzi hosszúság: 116-17E, magasság: 55 m

Jelenlegi meteorológiai megfigyelések

A jelentés 46 perccel ezelõtt készült, 09:00 UTC
Észak-északnyugati szél 10 kt
Hőmérséklet 29°C
Páratartalom 13%
Légköri nyomás 1007 hPa
Látótávolság 10 km, vagy több
felhőtlen 1500 m magasságban, és nincs gomolyfelhõ

METAR: ZBAA 280900Z 33005MPS CAVOK 29/M02 Q1007 NOSIG

Idő: 17:46 (09:46 UTC)

Előrejelzés

A jelentés 6 órával és 26 perccel ezelõtt készült, 03:20 UTC
Az előrejelzés 28-én 06 óra UTC és 29-én 06 óra UTC között érvényes
Észak-északnyugati szél 19 kt széllökések: 29 kt
Látótávolság 10 km, vagy több
felhőtlen 1500 m magasságban, és nincs gomolyfelhõ
28-én 11 óra UTC és 28-én 12 óra UTC között fokozatosan kialakuló
Északnyugati szél 8 kt

TAF: ZBAA 280320Z 2806/2906 33010G15MPS CAVOK TX30/2806Z TN16/2821Z BECMG 2811/2812 32004MPS

Meteorológiai megfigyelések és előrejelzések több, mint 4000 repülőtéren (METAR és TAF jelentéseket).

A térképen piros és sárga pontok jelzik az elérhető meteorológiai állomásokat.

Mozgassa az egeret a pont fölött, hogy megjelenjen az állomás neve.

Azután kattintson az időjárási megfigyelések és előrejelzések megtekintéséhez.

A térkép megváltoztatása: kattintson a fekete keresztel jelölt zöld gombra ráközelítéshez, a vonallal jelölt zöld gombra távolításhoz, vagy a zöld nyilakra a szomszédos térképek eléréséhez.


METAR-TAF: